createdAt,value
2022-09-09T00:01:06.404Z,6.15
2022-09-09T00:03:39.869Z,6.45
2022-09-09T00:06:14.908Z,7.72
2022-09-09T00:08:43.577Z,6.30
2022-09-09T00:11:14.340Z,9.90
2022-09-09T00:13:48.592Z,6.40
2022-09-09T00:16:20.232Z,9.05
2022-09-09T00:19:00.012Z,9.27
2022-09-09T00:21:47.690Z,8.52
2022-09-09T00:24:33.845Z,10.07
2022-09-09T00:27:04.231Z,6.97
2022-09-09T00:29:34.439Z,8.25
2022-09-09T00:32:06.718Z,6.65
2022-09-09T00:34:34.883Z,7.60
2022-09-09T00:37:03.822Z,7.50
2022-09-09T00:39:37.275Z,9.85
2022-09-09T00:42:04.710Z,7.15
2022-09-09T00:44:36.274Z,10.45
2022-09-09T00:47:10.225Z,9.02
2022-09-09T00:49:47.512Z,9.83
2022-09-09T00:52:15.063Z,8.05
2022-09-09T00:54:58.109Z,8.85
2022-09-09T00:57:32.210Z,6.50
2022-09-09T01:00:06.020Z,8.13
2022-09-09T01:02:38.947Z,8.75
2022-09-09T01:05:14.790Z,9.10
2022-09-09T01:07:47.134Z,8.35
2022-09-09T01:10:20.721Z,7.32
2022-09-09T01:12:48.967Z,8.23
2022-09-09T01:15:23.444Z,9.00
2022-09-09T01:17:56.290Z,8.80
2022-09-09T01:20:33.910Z,10.30
2022-09-09T01:23:06.232Z,9.13
2022-09-09T01:25:45.430Z,15.73
2022-09-09T01:28:28.325Z,11.90
2022-09-09T01:31:02.512Z,8.60
2022-09-09T01:33:36.503Z,8.70
2022-09-09T01:36:14.150Z,11.45
2022-09-09T01:38:48.365Z,35.80
2022-09-09T01:41:16.974Z,42.55
2022-09-09T01:43:50.624Z,31.67
2022-09-09T01:46:18.422Z,15.07
2022-09-09T01:48:47.025Z,33.53
2022-09-09T01:51:15.444Z,25.70
2022-09-09T01:53:43.515Z,12.80
2022-09-09T01:56:31.466Z,14.45
2022-09-09T01:59:05.118Z,7.88
2022-09-09T02:01:44.821Z,10.25
2022-09-09T02:04:20.241Z,14.93
2022-09-09T02:06:48.425Z,7.67
2022-09-09T02:09:24.561Z,17.92
2022-09-09T02:11:57.952Z,9.75
2022-09-09T02:14:40.283Z,10.43
2022-09-09T02:17:11.269Z,8.35
2022-09-09T02:20:04.653Z,9.52
2022-09-09T02:22:42.691Z,7.25
2022-09-09T02:25:12.890Z,7.43
2022-09-09T02:27:42.016Z,9.85
2022-09-09T02:30:10.328Z,8.98
2022-09-09T02:32:47.511Z,8.50
2022-09-09T02:35:19.476Z,9.70
2022-09-09T02:37:47.297Z,8.95
2022-09-09T02:40:19.394Z,8.45
2022-09-09T02:42:51.649Z,8.30
2022-09-09T02:45:26.128Z,8.00
2022-09-09T02:48:12.641Z,8.85
2022-09-09T02:50:51.039Z,11.50
2022-09-09T02:53:21.974Z,8.57
2022-09-09T02:55:52.094Z,9.82
2022-09-09T02:58:22.218Z,8.02
2022-09-09T03:01:02.251Z,10.18
2022-09-09T03:03:31.384Z,13.05
2022-09-09T03:06:00.699Z,8.23
2022-09-09T03:08:29.219Z,9.93
2022-09-09T03:11:02.186Z,7.50
2022-09-09T03:13:32.550Z,10.25
2022-09-09T03:16:00.936Z,7.95
2022-09-09T03:18:31.074Z,5.80
2022-09-09T03:21:00.741Z,7.10
2022-09-09T03:23:30.341Z,8.18
2022-09-09T03:26:01.130Z,8.45
2022-09-09T03:28:37.587Z,9.32
2022-09-09T03:31:06.634Z,9.18
2022-09-09T03:33:40.292Z,7.60
2022-09-09T03:36:09.561Z,8.30
2022-09-09T03:38:37.558Z,9.70
2022-09-09T03:41:07.250Z,9.88
2022-09-09T03:43:35.430Z,14.30
2022-09-09T03:46:02.949Z,8.32
2022-09-09T03:48:31.133Z,8.57
2022-09-09T03:51:02.290Z,6.63
2022-09-09T03:53:31.906Z,9.50
2022-09-09T03:56:00.894Z,8.02
2022-09-09T03:58:30.565Z,9.95
2022-09-09T04:01:07.470Z,8.38
2022-09-09T04:03:35.466Z,8.55
2022-09-09T04:06:04.512Z,9.70
2022-09-09T04:08:33.957Z,8.38
2022-09-09T04:11:06.349Z,6.35
2022-09-09T04:13:36.156Z,11.48
2022-09-09T04:16:04.941Z,20.40
2022-09-09T04:18:35.621Z,12.35
2022-09-09T04:21:05.549Z,14.43
2022-09-09T04:23:35.244Z,9.48
2022-09-09T04:26:03.375Z,7.88
2022-09-09T04:28:32.805Z,8.90
2022-09-09T04:31:10.830Z,10.88
2022-09-09T04:33:41.218Z,12.93
2022-09-09T04:36:10.282Z,14.27
2022-09-09T04:38:38.548Z,6.90
2022-09-09T04:41:06.252Z,8.23
2022-09-09T04:43:35.560Z,15.18
2022-09-09T04:46:05.883Z,8.15
2022-09-09T04:48:33.622Z,15.23
2022-09-09T04:51:06.675Z,9.27
2022-09-09T04:53:35.391Z,10.63
2022-09-09T04:56:04.053Z,13.13
2022-09-09T04:58:34.012Z,7.75
2022-09-09T05:01:05.648Z,10.98
2022-09-09T05:03:33.654Z,6.03
2022-09-09T05:06:21.020Z,9.38
2022-09-09T05:08:50.660Z,5.50
2022-09-09T05:11:24.421Z,7.35
2022-09-09T05:13:54.704Z,7.45
2022-09-09T05:16:23.852Z,10.63
2022-09-09T05:18:52.304Z,8.57
2022-09-09T05:21:22.366Z,5.57
2022-09-09T05:23:49.925Z,6.60
2022-09-09T05:26:18.318Z,7.05
2022-09-09T05:28:48.704Z,7.07
2022-09-09T05:31:17.619Z,6.45
2022-09-09T05:33:48.382Z,7.00
2022-09-09T05:36:17.698Z,6.13
2022-09-09T05:38:47.176Z,7.70
2022-09-09T05:41:18.925Z,9.00
2022-09-09T05:43:48.570Z,5.75
2022-09-09T05:46:17.742Z,6.93
2022-09-09T05:48:47.468Z,6.57
2022-09-09T05:51:16.877Z,8.45
2022-09-09T05:53:44.847Z,5.47
2022-09-09T05:56:15.288Z,7.00
2022-09-09T05:58:50.244Z,5.55
2022-09-09T06:01:24.301Z,7.57
2022-09-09T06:03:53.276Z,10.07
2022-09-09T06:06:27.104Z,6.30
2022-09-09T06:08:59.127Z,6.15
2022-09-09T06:11:32.418Z,9.15
2022-09-09T06:14:01.399Z,5.82
2022-09-09T06:16:32.540Z,7.93
2022-09-09T06:19:00.793Z,7.85
2022-09-09T06:21:31.224Z,5.35
2022-09-09T06:24:01.191Z,8.10
2022-09-09T06:26:31.555Z,11.98
2022-09-09T06:28:59.799Z,8.32
2022-09-09T06:31:31.324Z,9.40
2022-09-09T06:36:32.270Z,7.22
2022-09-09T06:38:59.972Z,7.60
2022-09-09T06:41:28.790Z,13.02
2022-09-09T06:43:58.468Z,6.10
2022-09-09T06:46:36.735Z,8.88
2022-09-09T06:49:04.350Z,9.02
2022-09-09T06:51:32.816Z,7.80
2022-09-09T06:54:01.289Z,10.65
2022-09-09T06:56:30.076Z,6.47
2022-09-09T06:59:00.263Z,11.00
2022-09-09T07:01:31.589Z,8.85
2022-09-09T07:04:02.985Z,9.65
2022-09-09T07:06:35.461Z,7.90
2022-09-09T07:09:05.284Z,7.32
2022-09-09T07:11:34.311Z,7.68
2022-09-09T07:14:02.448Z,9.98
2022-09-09T07:16:32.278Z,9.88
2022-09-09T07:19:01.698Z,8.00
2022-09-09T07:21:30.453Z,10.80
2022-09-09T07:23:58.402Z,9.00
2022-09-09T07:26:27.592Z,14.88
2022-09-09T07:28:57.116Z,9.82
2022-09-09T07:31:31.024Z,9.27
2022-09-09T07:33:59.295Z,25.75
2022-09-09T07:36:32.695Z,8.07
2022-09-09T07:39:03.386Z,9.25
2022-09-09T07:41:35.289Z,9.70
2022-09-09T07:44:07.726Z,12.10
2022-09-09T07:46:37.262Z,8.02
2022-09-09T07:49:05.269Z,12.55
2022-09-09T07:51:36.956Z,12.65
2022-09-09T07:54:06.042Z,9.98
2022-09-09T07:56:34.528Z,11.05
2022-09-09T07:59:03.052Z,11.70
2022-09-09T08:01:57.930Z,11.70
2022-09-09T08:04:29.218Z,13.60
2022-09-09T08:06:58.501Z,10.15
2022-09-09T08:09:29.693Z,11.77
2022-09-09T08:12:07.868Z,10.13
2022-09-09T08:14:35.878Z,13.18
2022-09-09T08:17:03.334Z,12.07
2022-09-09T08:19:35.121Z,7.68
2022-09-09T08:22:04.404Z,9.48
2022-09-09T08:24:34.322Z,9.80
2022-09-09T08:27:02.405Z,10.95
2022-09-09T08:29:30.423Z,6.13
2022-09-09T08:31:59.432Z,8.00
2022-09-09T08:34:29.114Z,8.70
2022-09-09T08:36:58.666Z,17.02
2022-09-09T08:39:34.164Z,7.07
2022-09-09T08:42:01.790Z,9.90
2022-09-09T08:44:32.015Z,9.63
2022-09-09T08:47:02.943Z,11.40
2022-09-09T08:49:39.918Z,9.98
2022-09-09T08:52:17.023Z,15.52
2022-09-09T08:54:52.045Z,10.95
2022-09-09T08:57:27.893Z,9.63
2022-09-09T08:59:57.644Z,6.22
2022-09-09T09:02:28.664Z,7.68
2022-09-09T09:05:07.319Z,9.68
2022-09-09T09:07:49.633Z,8.95
2022-09-09T09:10:41.522Z,5.95
2022-09-09T09:13:15.118Z,7.53
2022-09-09T09:15:43.969Z,7.13
2022-09-09T09:18:13.651Z,11.20
2022-09-09T09:21:02.532Z,7.07
2022-09-09T09:23:36.472Z,13.35
2022-09-09T09:26:09.277Z,16.77
2022-09-09T09:28:38.399Z,11.20
2022-09-09T09:31:15.169Z,16.92
2022-09-09T09:33:47.600Z,11.13
2022-09-09T09:36:18.402Z,9.30
2022-09-09T09:41:47.401Z,28.50
2022-09-09T09:44:43.131Z,11.25
2022-09-09T09:47:15.505Z,18.50
2022-09-09T09:49:56.918Z,33.13
2022-09-09T09:52:26.359Z,20.13
2022-09-09T09:54:54.867Z,12.02
2022-09-09T09:57:26.243Z,21.90
2022-09-09T10:00:05.127Z,18.63
2022-09-09T10:02:44.345Z,12.75
2022-09-09T10:05:26.825Z,20.98
2022-09-09T10:08:17.689Z,18.05
2022-09-09T10:11:11.427Z,21.75
2022-09-09T10:13:39.152Z,51.58
2022-09-09T10:16:23.123Z,21.80
2022-09-09T10:19:02.784Z,13.05
2022-09-09T10:21:38.868Z,8.85
2022-09-09T10:24:25.106Z,8.27
2022-09-09T10:27:13.837Z,11.73
2022-09-09T10:29:45.033Z,20.27
2022-09-09T10:32:15.353Z,14.38
2022-09-09T10:34:46.014Z,14.18
2022-09-09T10:37:24.462Z,6.97
2022-09-09T10:39:59.474Z,14.77
2022-09-09T10:42:31.050Z,14.15
2022-09-09T10:44:58.552Z,26.77
2022-09-09T10:47:29.491Z,13.48
2022-09-09T10:50:13.695Z,9.63
2022-09-09T10:52:44.653Z,8.85
2022-09-09T10:55:12.062Z,16.88
2022-09-09T10:57:42.934Z,10.40
2022-09-09T11:00:25.701Z,9.15
2022-09-09T11:02:56.939Z,8.48
2022-09-09T11:05:37.798Z,10.85
2022-09-09T11:08:17.499Z,10.48
2022-09-09T11:11:04.610Z,7.10
2022-09-09T11:13:41.704Z,15.88
2022-09-09T11:16:24.712Z,6.97
2022-09-09T11:18:52.606Z,12.48
2022-09-09T11:21:30.986Z,30.17
2022-09-09T11:24:01.623Z,9.23
2022-09-09T11:26:46.273Z,9.35
2022-09-09T11:29:14.665Z,5.43
2022-09-09T11:31:56.984Z,16.58
2022-09-09T11:37:08.969Z,8.93
2022-09-09T11:39:36.447Z,19.80
2022-09-09T11:42:16.224Z,12.50
2022-09-09T11:44:44.043Z,10.18
2022-09-09T11:47:31.215Z,7.53
2022-09-09T11:50:17.110Z,17.02
2022-09-09T11:52:49.008Z,14.73
2022-09-09T11:55:29.061Z,8.05
2022-09-09T11:58:01.182Z,16.58
2022-09-09T12:00:38.898Z,13.50
2022-09-09T12:03:07.401Z,10.55
2022-09-09T12:05:53.790Z,11.00
2022-09-09T12:08:26.774Z,13.23
2022-09-09T12:10:57.145Z,22.33
2022-09-09T12:13:28.547Z,20.50
2022-09-09T12:15:57.347Z,17.75
2022-09-09T12:18:35.009Z,15.70
2022-09-09T12:21:05.702Z,14.60
2022-09-09T12:23:37.549Z,12.00
2022-09-09T12:26:05.259Z,11.82
2022-09-09T12:28:32.893Z,14.80
2022-09-09T12:31:03.917Z,13.30
2022-09-09T12:33:38.629Z,16.70
2022-09-09T12:36:07.967Z,8.73
2022-09-09T12:38:40.101Z,13.07
2022-09-09T12:41:07.794Z,17.13
2022-09-09T12:43:35.476Z,17.92
2022-09-09T12:46:05.364Z,13.48
2022-09-09T12:48:37.989Z,15.77
2022-09-09T12:51:06.937Z,13.75
2022-09-09T12:53:35.948Z,15.70
2022-09-09T12:56:08.443Z,9.57
2022-09-09T12:58:37.709Z,15.07
2022-09-09T13:01:06.308Z,21.10
2022-09-09T13:03:35.154Z,10.57
2022-09-09T13:06:19.590Z,26.55
2022-09-09T13:11:19.807Z,14.82
2022-09-09T13:13:52.323Z,29.42
2022-09-09T13:16:25.080Z,16.63
2022-09-09T13:18:52.873Z,28.90
2022-09-09T13:21:20.794Z,20.23
2022-09-09T13:23:53.161Z,25.70
2022-09-09T13:26:27.574Z,35.05
2022-09-09T13:28:55.819Z,16.10
2022-09-09T13:31:25.499Z,22.45
2022-09-09T13:33:54.189Z,15.68
2022-09-09T13:36:30.488Z,11.57
2022-09-09T13:39:00.578Z,13.40
2022-09-09T13:41:32.019Z,21.33
2022-09-09T13:43:59.880Z,18.20
2022-09-09T13:46:31.194Z,11.90
2022-09-09T13:48:59.608Z,18.90
2022-09-09T13:51:32.819Z,16.92
2022-09-09T13:54:01.512Z,10.48
2022-09-09T13:56:32.964Z,15.13
2022-09-09T13:59:00.603Z,15.77
2022-09-09T14:01:29.675Z,14.68
2022-09-09T14:03:57.665Z,15.82
2022-09-09T14:06:25.590Z,13.75
2022-09-09T14:08:53.473Z,11.07
2022-09-09T14:11:22.378Z,12.80
2022-09-09T14:13:52.936Z,15.05
2022-09-09T14:16:22.481Z,13.32
2022-09-09T14:18:50.007Z,14.63
2022-09-09T14:21:17.500Z,15.02
2022-09-09T14:23:44.908Z,22.25
2022-09-09T14:26:12.283Z,12.85
2022-09-09T14:28:56.720Z,17.38
2022-09-09T14:31:24.833Z,12.93
2022-09-09T14:33:52.361Z,19.65
2022-09-09T14:36:20.278Z,14.93
2022-09-09T14:38:47.743Z,12.55
2022-09-09T14:41:19.343Z,14.32
2022-09-09T14:43:47.443Z,12.73
2022-09-09T14:46:16.040Z,13.55
2022-09-09T14:48:44.925Z,15.75
2022-09-09T14:51:14.373Z,13.73
2022-09-09T14:53:42.306Z,14.02
2022-09-09T14:56:11.958Z,12.13
2022-09-09T14:58:39.790Z,20.10
2022-09-09T15:01:07.997Z,16.08
2022-09-09T15:03:35.671Z,15.73
2022-09-09T15:06:07.322Z,15.32
2022-09-09T15:08:37.150Z,15.73
2022-09-09T15:11:14.120Z,16.25
2022-09-09T15:13:43.315Z,14.50
2022-09-09T15:16:11.977Z,14.27
2022-09-09T15:18:43.840Z,12.63
2022-09-09T15:21:11.834Z,19.33
2022-09-09T15:23:39.682Z,18.45
2022-09-09T15:26:07.690Z,14.82
2022-09-09T15:28:38.655Z,16.88
2022-09-09T15:31:08.316Z,16.48
2022-09-09T15:33:37.790Z,14.57
2022-09-09T15:36:21.396Z,15.68
2022-09-09T15:38:48.842Z,14.00
2022-09-09T15:41:16.843Z,12.63
2022-09-09T15:44:02.746Z,15.65
2022-09-09T15:46:33.349Z,14.55
2022-09-09T15:49:05.579Z,14.50
2022-09-09T15:51:49.005Z,18.25
2022-09-09T15:54:18.538Z,13.05
2022-09-09T15:56:47.470Z,16.40
2022-09-09T15:59:15.761Z,16.05
2022-09-09T16:01:44.126Z,13.82
2022-09-09T16:04:11.788Z,15.88
2022-09-09T16:06:40.095Z,20.25
2022-09-09T16:09:08.672Z,14.88
2022-09-09T16:11:37.905Z,14.95
2022-09-09T16:14:06.437Z,14.40
2022-09-09T16:16:33.914Z,13.60
2022-09-09T16:19:02.468Z,14.07
2022-09-09T16:21:31.310Z,13.55
2022-09-09T16:24:00.526Z,11.98
2022-09-09T16:26:28.682Z,13.07
2022-09-09T16:28:56.278Z,14.65
2022-09-09T16:31:24.921Z,14.93
2022-09-09T16:33:52.907Z,18.50
2022-09-09T16:36:24.982Z,12.13
2022-09-09T16:38:56.203Z,13.48
2022-09-09T16:41:23.633Z,17.38
2022-09-09T16:43:55.113Z,21.83
2022-09-09T16:46:23.754Z,16.05
2022-09-09T16:48:51.704Z,24.02
2022-09-09T16:51:26.567Z,22.40
2022-09-09T16:53:54.804Z,16.15
2022-09-09T16:56:25.486Z,24.60
2022-09-09T16:58:56.989Z,19.13
2022-09-09T17:01:25.143Z,18.13
2022-09-09T17:04:00.205Z,19.35
2022-09-09T17:06:28.635Z,14.95
2022-09-09T17:09:02.341Z,15.02
2022-09-09T17:11:30.658Z,24.48
2022-09-09T17:14:01.622Z,30.48
2022-09-09T17:16:31.335Z,19.20
2022-09-09T17:18:59.721Z,14.85
2022-09-09T17:21:28.284Z,13.95
2022-09-09T17:23:56.599Z,17.00
2022-09-09T17:26:25.076Z,18.23
2022-09-09T17:28:57.352Z,18.17
2022-09-09T17:31:27.267Z,26.70
2022-09-09T17:33:56.765Z,23.35
2022-09-09T17:36:31.563Z,14.50
2022-09-09T17:39:00.037Z,12.52
2022-09-09T17:41:35.751Z,19.30
2022-09-09T17:44:04.884Z,22.85
2022-09-09T17:46:35.401Z,17.65
2022-09-09T17:49:05.590Z,15.35
2022-09-09T17:51:33.439Z,23.23
2022-09-09T17:54:11.253Z,21.42
2022-09-09T17:56:39.851Z,21.67
2022-09-09T17:59:10.587Z,17.77
2022-09-09T18:01:39.618Z,19.33
2022-09-09T18:04:08.940Z,20.25
2022-09-09T18:06:38.234Z,18.10
2022-09-09T18:09:10.216Z,21.17
2022-09-09T18:11:42.597Z,17.75
2022-09-09T18:14:12.819Z,20.58
2022-09-09T18:16:41.054Z,16.63
2022-09-09T18:19:09.562Z,21.88
2022-09-09T18:21:37.424Z,17.88
2022-09-09T18:24:06.363Z,18.98
2022-09-09T18:26:34.241Z,20.20
2022-09-09T18:29:06.432Z,15.27
2022-09-09T18:31:37.511Z,15.73
2022-09-09T18:34:06.631Z,24.15
2022-09-09T18:36:35.895Z,20.55
2022-09-09T18:39:04.268Z,18.85
2022-09-09T18:41:33.469Z,25.85
2022-09-09T18:44:05.793Z,22.65
2022-09-09T18:46:37.523Z,24.27
2022-09-09T18:49:05.892Z,25.98
2022-09-09T18:51:35.387Z,20.02
2022-09-09T18:54:04.561Z,27.25
2022-09-09T18:56:32.472Z,21.15
2022-09-09T18:59:01.011Z,18.13
2022-09-09T19:01:31.433Z,21.25
2022-09-09T19:03:59.376Z,22.83
2022-09-09T19:06:28.305Z,24.42
2022-09-09T19:08:59.127Z,26.08
2022-09-09T19:11:30.787Z,22.60
2022-09-09T19:14:00.312Z,22.75
2022-09-09T19:16:29.455Z,23.05
2022-09-09T19:18:59.268Z,18.15
2022-09-09T19:21:28.099Z,20.30
2022-09-09T19:24:08.949Z,18.42
2022-09-09T19:26:40.618Z,17.38
2022-09-09T19:29:10.234Z,21.70
2022-09-09T19:31:38.260Z,25.55
2022-09-09T19:34:06.038Z,15.57
2022-09-09T19:36:33.694Z,17.52
2022-09-09T19:39:01.887Z,23.17
2022-09-09T19:41:31.484Z,28.38
2022-09-09T19:44:01.912Z,19.65
2022-09-09T19:46:31.551Z,19.10
2022-09-09T19:49:01.017Z,17.67
2022-09-09T19:51:29.654Z,17.85
2022-09-09T19:54:03.053Z,18.20
2022-09-09T19:56:31.115Z,20.73
2022-09-09T19:58:58.607Z,17.58
2022-09-09T20:01:27.478Z,24.30
2022-09-09T20:03:56.955Z,23.30
2022-09-09T20:06:26.643Z,22.50
2022-09-09T20:08:54.221Z,24.50
2022-09-09T20:11:21.738Z,24.05
2022-09-09T20:13:50.059Z,16.30
2022-09-09T20:16:24.601Z,18.73
2022-09-09T20:18:56.597Z,22.08
2022-09-09T20:21:26.193Z,16.05
2022-09-09T20:23:53.934Z,23.05
2022-09-09T20:26:22.700Z,21.42
2022-09-09T20:28:51.134Z,16.17
2022-09-09T20:31:20.165Z,16.65
2022-09-09T20:33:48.131Z,19.05
2022-09-09T20:36:17.615Z,23.23
2022-09-09T20:38:46.969Z,19.10
2022-09-09T20:41:18.492Z,19.58
2022-09-09T20:43:49.443Z,16.98
2022-09-09T20:46:20.913Z,25.33
2022-09-09T20:48:50.341Z,22.48
2022-09-09T20:51:19.756Z,24.65
2022-09-09T20:53:47.562Z,17.73
2022-09-09T20:56:18.142Z,21.92
2022-09-09T20:58:45.565Z,21.77
2022-09-09T21:01:15.886Z,25.65
2022-09-09T21:03:43.361Z,19.67
2022-09-09T21:06:11.184Z,33.72
2022-09-09T21:08:38.705Z,25.27
2022-09-09T21:11:06.279Z,22.45
2022-09-09T21:13:34.750Z,20.48
2022-09-09T21:16:02.260Z,20.90
2022-09-09T21:18:29.978Z,21.05
2022-09-09T21:20:57.539Z,25.52
2022-09-09T21:23:25.968Z,16.75
2022-09-09T21:25:53.348Z,21.27
2022-09-09T21:28:21.687Z,18.38
2022-09-09T21:30:55.046Z,18.13
2022-09-09T21:33:23.463Z,22.77
2022-09-09T21:35:50.901Z,20.25
2022-09-09T21:38:19.784Z,15.93
2022-09-09T21:40:50.219Z,14.57
2022-09-09T21:43:18.674Z,19.35
2022-09-09T21:45:46.370Z,18.75
2022-09-09T21:48:15.264Z,16.95
2022-09-09T21:50:46.023Z,16.52
2022-09-09T21:53:14.307Z,17.45
2022-09-09T21:55:42.374Z,18.38
2022-09-09T21:58:10.426Z,19.23
2022-09-09T22:00:37.882Z,21.85
2022-09-09T22:03:05.379Z,19.17
2022-09-09T22:05:32.813Z,17.08
2022-09-09T22:08:00.183Z,15.38
2022-09-09T22:10:27.741Z,14.27
2022-09-09T22:12:55.151Z,15.95
2022-09-09T22:15:22.603Z,18.95
2022-09-09T22:17:50.040Z,16.42
2022-09-09T22:20:17.473Z,17.42
2022-09-09T22:22:44.950Z,18.80
2022-09-09T22:25:12.309Z,13.02
2022-09-09T22:27:40.273Z,18.80
2022-09-09T22:30:08.012Z,20.73
2022-09-09T22:32:35.458Z,19.30
2022-09-09T22:35:04.621Z,15.25
2022-09-09T22:37:34.313Z,15.50
2022-09-09T22:40:01.903Z,15.75
2022-09-09T22:42:30.449Z,17.80
2022-09-09T22:44:58.051Z,17.50
2022-09-09T22:47:25.394Z,18.23
2022-09-09T22:49:52.788Z,19.63
2022-09-09T22:52:20.268Z,20.10
2022-09-09T22:54:48.118Z,17.70
2022-09-09T22:57:15.502Z,19.88
2022-09-09T22:59:43.120Z,16.20
2022-09-09T23:02:10.502Z,18.05
2022-09-09T23:04:39.245Z,17.20
2022-09-09T23:07:08.024Z,18.38
2022-09-09T23:09:35.417Z,17.25
2022-09-09T23:12:04.497Z,17.60
2022-09-09T23:14:33.059Z,22.85
2022-09-09T23:17:02.307Z,21.08
2022-09-09T23:19:29.973Z,20.67
2022-09-09T23:21:58.319Z,19.05
2022-09-09T23:24:26.208Z,22.00
2022-09-09T23:26:53.635Z,21.45
2022-09-09T23:29:21.545Z,16.50
2022-09-09T23:31:48.999Z,19.60
2022-09-09T23:34:16.547Z,19.63
2022-09-09T23:36:44.018Z,16.23
2022-09-09T23:39:13.175Z,22.33
2022-09-09T23:41:40.558Z,21.38
2022-09-09T23:44:07.965Z,22.55
2022-09-09T23:46:35.993Z,21.55
2022-09-09T23:49:03.839Z,20.98
2022-09-09T23:51:31.804Z,19.67
2022-09-09T23:54:00.534Z,22.40
2022-09-09T23:56:29.592Z,21.10
2022-09-09T23:58:57.025Z,21.45
